createdAt,value
2019-04-05T00:01:52.472Z,99773.81
2019-04-05T00:04:23.641Z,99774.42
2019-04-05T00:06:55.196Z,99770.73
2019-04-05T00:09:27.676Z,99778.70
2019-04-05T00:11:59.119Z,99771.77
2019-04-05T00:14:30.464Z,99772.80
2019-04-05T00:17:01.940Z,99768.28
2019-04-05T00:19:33.400Z,99773.77
2019-04-05T00:22:04.882Z,99771.75
2019-04-05T00:24:36.277Z,99772.31
2019-04-05T00:27:07.613Z,99774.39
2019-04-05T00:29:39.164Z,99774.31
2019-04-05T00:32:10.718Z,99776.70
2019-04-05T00:34:42.169Z,99773.55
2019-04-05T00:37:13.629Z,99776.69
2019-04-05T00:39:45.175Z,99777.27
2019-04-05T00:42:16.757Z,99776.77
2019-04-05T00:44:48.385Z,99774.42
2019-04-05T00:47:19.863Z,99774.42
2019-04-05T00:49:51.229Z,99774.25
2019-04-05T00:52:22.870Z,99785.44
2019-04-05T00:54:54.176Z,99780.68
2019-04-05T00:57:25.738Z,99779.75
2019-04-05T00:59:56.979Z,99782.33
2019-04-05T01:02:28.224Z,99784.95
2019-04-05T01:04:59.771Z,99786.23
2019-04-05T01:07:31.272Z,99781.31
2019-04-05T01:10:02.684Z,99785.59
2019-04-05T01:12:34.075Z,99785.59
2019-04-05T01:15:05.778Z,99793.16
2019-04-05T01:17:37.025Z,99790.70
2019-04-05T01:20:08.373Z,99815.47
2019-04-05T01:26:42.308Z,99778.95
2019-04-05T01:29:13.762Z,99786.45
2019-04-05T01:31:45.104Z,99783.84
2019-04-05T01:34:16.767Z,99782.52
2019-04-05T01:36:49.437Z,99786.39
2019-04-05T01:39:21.201Z,99781.87
2019-04-05T01:41:52.653Z,99786.70
2019-04-05T01:44:25.530Z,99781.55
2019-04-05T01:46:56.878Z,99782.10
2019-04-05T01:49:28.451Z,99785.27
2019-04-05T01:51:59.778Z,99780.21
2019-04-05T01:54:31.350Z,99783.48
2019-04-05T01:57:02.474Z,99779.69
2019-04-05T01:59:34.154Z,99781.55
2019-04-05T02:02:05.784Z,99788.67
2019-04-05T02:04:37.234Z,99788.92
2019-04-05T02:07:08.884Z,99795.42
2019-04-05T02:09:40.379Z,99794.55
2019-04-05T02:12:12.203Z,99797.97
2019-04-05T02:14:43.700Z,99798.30
2019-04-05T02:17:15.121Z,99801.72
2019-04-05T02:19:46.757Z,99799.14
2019-04-05T02:22:18.106Z,99801.72
2019-04-05T02:24:50.708Z,99809.19
2019-04-05T02:27:22.129Z,99801.56
2019-04-05T02:29:53.680Z,99800.94
2019-04-05T02:32:25.188Z,99803.87
2019-04-05T02:34:56.688Z,99802.94
2019-04-05T02:37:28.072Z,99804.13
2019-04-05T02:39:59.604Z,99806.73
2019-04-05T02:42:31.364Z,99807.15
2019-04-05T02:45:03.004Z,99808.78
2019-04-05T02:47:34.260Z,99811.98
2019-04-05T02:50:06.820Z,99812.09
2019-04-05T02:52:38.176Z,99810.47
2019-04-05T02:55:09.722Z,99813.92
2019-04-05T02:57:44.586Z,99809.39
2019-04-05T03:00:15.932Z,99815.82
2019-04-05T03:02:47.766Z,99817.80
2019-04-05T03:05:19.410Z,99816.86
2019-04-05T03:07:50.870Z,99813.33
2019-04-05T03:10:42.486Z,99821.91
2019-04-05T03:13:14.145Z,99823.47
2019-04-05T03:15:45.694Z,99830.16
2019-04-05T03:18:16.840Z,99834.47
2019-04-05T03:20:48.589Z,99832.20
2019-04-05T03:23:19.867Z,99831.53
2019-04-05T03:25:51.402Z,99837.70
2019-04-05T03:28:23.663Z,99836.21
2019-04-05T03:30:55.052Z,99841.96
2019-04-05T03:33:27.052Z,99842.96
2019-04-05T03:35:58.734Z,99847.75
2019-04-05T03:38:30.894Z,99851.34
2019-04-05T03:41:02.701Z,99859.25
2019-04-05T03:43:34.818Z,99857.50
2019-04-05T03:46:06.075Z,99859.72
2019-04-05T03:48:38.150Z,99855.21
2019-04-05T03:51:09.683Z,99859.32
2019-04-05T03:53:41.135Z,99864.38
2019-04-05T03:56:12.695Z,99864.56
2019-04-05T03:58:44.373Z,99867.85
2019-04-05T04:01:16.315Z,99868.62
2019-04-05T04:03:47.868Z,99878.42
2019-04-05T04:06:20.657Z,99875.48
2019-04-05T04:08:51.880Z,99877.23
2019-04-05T04:11:24.662Z,99882.62
2019-04-05T04:13:56.016Z,99883.03
2019-04-05T04:16:27.663Z,99890.31
2019-04-05T04:18:59.114Z,99891.52
2019-04-05T04:21:36.231Z,99885.13
2019-04-05T04:24:08.488Z,99888.61
2019-04-05T04:26:39.832Z,99886.28
2019-04-05T04:29:11.643Z,99892.17
2019-04-05T04:31:43.084Z,99891.89
2019-04-05T04:34:14.949Z,99898.75
2019-04-05T04:36:47.146Z,99894.16
2019-04-05T04:39:19.104Z,99894.78
2019-04-05T04:41:51.507Z,99899.64
2019-04-05T04:44:23.528Z,99899.27
2019-04-05T04:46:55.839Z,99904.04
2019-04-05T04:49:27.885Z,99905.54
2019-04-05T04:52:00.591Z,99906.10
2019-04-05T04:54:32.938Z,99904.60
2019-04-05T04:57:04.992Z,99906.96
2019-04-05T04:59:37.273Z,99906.69
2019-04-05T05:02:10.562Z,99913.93
2019-04-05T05:04:42.430Z,99919.49
2019-04-05T05:07:16.728Z,99917.22
2019-04-05T05:09:48.425Z,99917.06
2019-04-05T05:12:23.181Z,99918.62
2019-04-05T05:14:58.914Z,99917.22
2019-04-05T05:17:38.259Z,99916.41
2019-04-05T05:20:04.946Z,99917.10
2019-04-05T05:22:37.224Z,99921.02
2019-04-05T05:25:09.400Z,99917.75
2019-04-05T05:27:41.482Z,99922.19
2019-04-05T05:30:16.260Z,99922.59
2019-04-05T05:32:49.388Z,99928.09
2019-04-05T05:35:22.045Z,99928.78
2019-04-05T05:37:54.112Z,99932.34
2019-04-05T05:40:35.279Z,99931.91
2019-04-05T05:43:03.363Z,99928.29
2019-04-05T05:45:35.212Z,99933.59
2019-04-05T05:48:06.972Z,99939.47
2019-04-05T05:50:38.318Z,99934.97
2019-04-05T05:53:09.989Z,99927.86
2019-04-05T05:55:43.168Z,99933.37
2019-04-05T05:58:14.714Z,99941.08
2019-04-05T06:00:46.497Z,99944.34
2019-04-05T06:03:19.255Z,99944.19
2019-04-05T06:05:58.349Z,99941.52
2019-04-05T06:08:23.521Z,99944.99
2019-04-05T06:10:55.175Z,99943.59
2019-04-05T06:13:26.494Z,99945.47
2019-04-05T06:15:58.612Z,99950.23
2019-04-05T06:18:30.969Z,99949.98
2019-04-05T06:21:03.570Z,99954.15
2019-04-05T06:23:35.052Z,99954.50
2019-04-05T06:26:06.704Z,99962.09
2019-04-05T06:28:38.062Z,99962.39
2019-04-05T06:31:09.712Z,99967.45
2019-04-05T06:33:41.362Z,99964.65
2019-04-05T06:36:12.644Z,99960.64
2019-04-05T06:38:44.996Z,99962.70
2019-04-05T06:41:16.640Z,99970.78
2019-04-05T06:43:48.291Z,99967.55
2019-04-05T06:46:19.643Z,99966.55
2019-04-05T06:48:51.294Z,99970.78
2019-04-05T06:51:22.745Z,99972.41
2019-04-05T06:53:54.195Z,99974.77
2019-04-05T06:56:25.700Z,99976.14
2019-04-05T06:58:57.442Z,99984.81
2019-04-05T07:01:28.747Z,99971.94
2019-04-05T07:04:00.098Z,99976.58
2019-04-05T07:06:36.859Z,99977.78
2019-04-05T07:09:13.648Z,99980.83
2019-04-05T07:11:45.208Z,99977.05
2019-04-05T07:14:16.671Z,99983.63
2019-04-05T07:16:48.404Z,99983.14
2019-04-05T07:19:19.775Z,99990.62
2019-04-05T07:21:51.443Z,99988.64
2019-04-05T07:24:22.757Z,99985.53
2019-04-05T07:26:54.313Z,99992.92
2019-04-05T07:29:25.760Z,99995.86
2019-04-05T07:31:57.208Z,99996.92
2019-04-05T07:34:28.284Z,99997.90
2019-04-05T07:36:59.935Z,100003.09
2019-04-05T07:39:31.737Z,100003.95
2019-04-05T07:42:03.531Z,100008.80
2019-04-05T07:44:34.796Z,100010.36
2019-04-05T07:47:06.124Z,100009.22
2019-04-05T07:49:37.420Z,100013.63
2019-04-05T07:52:08.958Z,100009.48
2019-04-05T07:54:40.583Z,100011.88
2019-04-05T07:57:12.136Z,100004.34
2019-04-05T07:59:43.788Z,100004.62
2019-04-05T08:02:15.437Z,100005.20
2019-04-05T08:04:46.903Z,100011.14
2019-04-05T08:07:18.534Z,100004.75
2019-04-05T08:09:49.816Z,100009.30
2019-04-05T08:12:21.231Z,100006.74
2019-04-05T08:14:52.591Z,100005.92
2019-04-05T08:17:24.275Z,100001.66
2019-04-05T08:19:56.027Z,100002.81
2019-04-05T08:22:27.468Z,100003.61
2019-04-05T08:24:59.130Z,100005.57
2019-04-05T08:27:30.761Z,99993.78
2019-04-05T08:30:02.103Z,99997.77
2019-04-05T08:32:33.658Z,99989.80
2019-04-05T08:35:06.548Z,99995.68
2019-04-05T08:37:37.787Z,99993.19
2019-04-05T08:40:09.138Z,99980.51
2019-04-05T08:42:40.496Z,99995.29
2019-04-05T08:45:11.828Z,99988.27
2019-04-05T08:47:43.287Z,99995.47
2019-04-05T08:50:14.829Z,99992.73
2019-04-05T08:52:46.179Z,99991.60
2019-04-05T08:55:17.795Z,99991.20
2019-04-05T08:57:49.312Z,99988.93
2019-04-05T09:00:20.836Z,99982.41
2019-04-05T09:02:52.347Z,99981.00
2019-04-05T09:05:23.953Z,99984.27
2019-04-05T09:07:55.515Z,99972.36
2019-04-05T09:10:26.963Z,99981.45
2019-04-05T09:12:58.521Z,99974.84
2019-04-05T09:15:30.148Z,99978.00
2019-04-05T09:18:01.397Z,99974.52
2019-04-05T09:20:32.793Z,99973.56
2019-04-05T09:23:04.209Z,99974.03
2019-04-05T09:25:35.565Z,99979.87
2019-04-05T09:28:07.035Z,99973.83
2019-04-05T09:30:38.564Z,99975.55
2019-04-05T09:33:09.996Z,99977.31
2019-04-05T09:35:41.345Z,99978.01
2019-04-05T09:38:13.532Z,99984.03
2019-04-05T09:40:44.983Z,99979.23
2019-04-05T09:43:16.426Z,99973.21
2019-04-05T09:45:47.993Z,99977.75
2019-04-05T09:48:19.315Z,99976.41
2019-04-05T09:50:50.877Z,99966.92
2019-04-05T09:53:22.216Z,99970.11
2019-04-05T09:55:53.868Z,99969.27
2019-04-05T09:58:25.324Z,99966.77
2019-04-05T10:00:57.617Z,99970.11
2019-04-05T10:03:29.036Z,99966.61
2019-04-05T10:06:00.501Z,99966.84
2019-04-05T10:08:32.754Z,99964.44
2019-04-05T10:11:04.312Z,99956.48
2019-04-05T10:13:35.757Z,99954.59
2019-04-05T10:16:07.525Z,99955.18
2019-04-05T10:18:39.187Z,99946.16
2019-04-05T10:21:10.431Z,99947.93
2019-04-05T10:23:41.811Z,99947.92
2019-04-05T10:26:13.124Z,99944.11
2019-04-05T10:28:44.474Z,99949.69
2019-04-05T10:31:15.808Z,99951.47
2019-04-05T10:33:47.152Z,99946.66
2019-04-05T10:36:19.977Z,99947.33
2019-04-05T10:38:51.385Z,99946.36
2019-04-05T10:41:23.228Z,99940.05
2019-04-05T10:43:54.589Z,99942.94
2019-04-05T10:46:25.924Z,99945.00
2019-04-05T10:48:57.437Z,99940.70
2019-04-05T10:51:28.845Z,99936.27
2019-04-05T10:54:00.409Z,99939.84
2019-04-05T10:56:31.845Z,99934.21
2019-04-05T10:59:03.308Z,99925.37
2019-04-05T11:01:34.641Z,99931.16
2019-04-05T11:04:06.298Z,99922.64
2019-04-05T11:06:37.658Z,99926.27
2019-04-05T11:09:09.297Z,99926.95
2019-04-05T11:11:40.694Z,99916.47
2019-04-05T11:14:13.981Z,99921.86
2019-04-05T11:16:57.557Z,99918.58
2019-04-05T11:19:18.280Z,99920.11
2019-04-05T11:21:52.276Z,99915.20
2019-04-05T11:24:22.407Z,99909.73
2019-04-05T11:26:53.863Z,99909.78
2019-04-05T11:29:25.101Z,99899.39
2019-04-05T11:31:57.640Z,99896.35
2019-04-05T11:34:29.038Z,99895.39
2019-04-05T11:37:02.778Z,99893.16
2019-04-05T11:39:33.356Z,99890.34
2019-04-05T11:42:04.807Z,99893.57
2019-04-05T11:44:36.260Z,99884.45
2019-04-05T11:47:07.549Z,99892.54
2019-04-05T11:49:39.074Z,99886.55
2019-04-05T11:52:10.402Z,99883.57
2019-04-05T11:54:43.730Z,99880.10
2019-04-05T11:57:15.147Z,99875.16
2019-04-05T11:59:48.547Z,99880.07
2019-04-05T12:02:32.890Z,99873.55
2019-04-05T12:05:06.190Z,99875.88
2019-04-05T12:07:37.441Z,99876.27
2019-04-05T12:10:09.085Z,99871.41
2019-04-05T12:12:40.333Z,99860.16
2019-04-05T12:15:11.806Z,99866.78
2019-04-05T12:17:44.769Z,99863.53
2019-04-05T12:20:16.323Z,99862.33
2019-04-05T12:22:47.878Z,99861.74
2019-04-05T12:25:19.231Z,99858.78
2019-04-05T12:27:50.672Z,99856.60
2019-04-05T12:30:23.680Z,99849.94
2019-04-05T12:32:55.028Z,99852.06
2019-04-05T12:35:26.374Z,99845.39
2019-04-05T12:37:57.707Z,99843.10
2019-04-05T12:40:29.268Z,99854.86
2019-04-05T12:43:00.622Z,99845.59
2019-04-05T12:45:32.108Z,99844.43
2019-04-05T12:48:03.548Z,99842.92
2019-04-05T12:50:34.848Z,99825.68
2019-04-05T12:53:06.121Z,99828.45
2019-04-05T12:55:37.501Z,99830.39
2019-04-05T12:58:10.060Z,99835.92
2019-04-05T13:00:41.490Z,99832.63
2019-04-05T13:03:12.970Z,99827.16
2019-04-05T13:05:44.473Z,99829.94
2019-04-05T13:08:16.232Z,99829.70
2019-04-05T13:10:48.046Z,99821.93
2019-04-05T13:13:19.345Z,99825.33
2019-04-05T13:15:50.784Z,99822.52
2019-04-05T13:18:24.962Z,99828.67
2019-04-05T13:20:55.899Z,99822.92
2019-04-05T13:23:27.083Z,99821.06
2019-04-05T13:25:58.449Z,99823.58
2019-04-05T13:28:29.996Z,99825.02
2019-04-05T13:31:01.335Z,99818.71
2019-04-05T13:33:32.545Z,99820.75
2019-04-05T13:36:04.064Z,99818.91
2019-04-05T13:38:35.494Z,99821.44
2019-04-05T13:41:07.846Z,99817.16
2019-04-05T13:43:39.436Z,99813.05
2019-04-05T13:46:21.363Z,99809.05
2019-04-05T13:48:43.909Z,99814.89
2019-04-05T13:51:27.256Z,99816.45
2019-04-05T13:53:48.382Z,99814.62
2019-04-05T13:56:19.830Z,99812.39
2019-04-05T13:58:51.386Z,99809.08
2019-04-05T14:01:23.173Z,99807.91
2019-04-05T14:03:54.722Z,99805.19
2019-04-05T14:06:26.349Z,99805.73
2019-04-05T14:08:58.044Z,99806.12
2019-04-05T14:11:29.864Z,99799.36
2019-04-05T14:14:01.434Z,99796.94
2019-04-05T14:16:33.108Z,99794.66
2019-04-05T14:19:04.663Z,99800.89
2019-04-05T14:21:40.835Z,99807.91
2019-04-05T14:24:09.130Z,99800.80
2019-04-05T14:26:43.387Z,99798.14
2019-04-05T14:29:13.624Z,99795.59
2019-04-05T14:31:45.079Z,99802.73
2019-04-05T14:34:16.740Z,99792.40
2019-04-05T14:36:49.991Z,99797.58
2019-04-05T14:39:21.173Z,99791.82
2019-04-05T14:41:52.901Z,99801.48
2019-04-05T14:44:24.556Z,99795.48
2019-04-05T14:46:58.044Z,99795.62
2019-04-05T14:49:30.598Z,99798.57
2019-04-05T14:52:02.107Z,99800.47
2019-04-05T14:54:33.417Z,99800.12
2019-04-05T14:57:05.979Z,99803.84
2019-04-05T14:59:37.386Z,99800.91
2019-04-05T15:02:09.634Z,99796.37
2019-04-05T15:04:41.131Z,99796.27
2019-04-05T15:07:12.659Z,99799.35
2019-04-05T15:09:44.168Z,99802.92
2019-04-05T15:12:15.653Z,99797.84
2019-04-05T15:14:47.318Z,99796.34
2019-04-05T15:17:18.928Z,99798.78
2019-04-05T15:19:50.638Z,99800.45
2019-04-05T15:22:22.062Z,99790.54
2019-04-05T15:24:53.595Z,99796.66
2019-04-05T15:27:25.069Z,99796.28
2019-04-05T15:29:57.019Z,99797.77
2019-04-05T15:32:28.248Z,99798.68
2019-04-05T15:34:59.625Z,99795.99
2019-04-05T15:37:32.517Z,99797.13
2019-04-05T15:40:05.714Z,99798.27
2019-04-05T15:42:37.219Z,99797.08
2019-04-05T15:45:09.080Z,99801.61
2019-04-05T15:47:41.667Z,99800.30
2019-04-05T15:50:12.910Z,99803.83
2019-04-05T15:52:44.678Z,99803.16
2019-04-05T15:55:16.443Z,99803.08
2019-04-05T15:57:47.782Z,99805.67
2019-04-05T16:00:25.909Z,99805.98
2019-04-05T16:02:56.701Z,99809.33
2019-04-05T16:05:28.410Z,99805.70
2019-04-05T16:08:00.017Z,99814.27
2019-04-05T16:10:31.462Z,99815.97
2019-04-05T16:13:03.740Z,99812.20
2019-04-05T16:15:35.415Z,99816.56
2019-04-05T16:18:06.743Z,99812.56
2019-04-05T16:20:38.189Z,99814.12
2019-04-05T16:23:09.744Z,99821.53
2019-04-05T16:25:41.399Z,99829.28
2019-04-05T16:28:12.954Z,99823.52
2019-04-05T16:30:44.432Z,99820.55
2019-04-05T16:33:16.067Z,99824.35
2019-04-05T16:35:47.772Z,99829.73
2019-04-05T16:38:19.402Z,99832.44
2019-04-05T16:40:50.614Z,99832.74
2019-04-05T16:43:22.366Z,99830.88
2019-04-05T16:45:54.123Z,99834.84
2019-04-05T16:48:25.656Z,99840.18
2019-04-05T16:50:56.817Z,99845.41
2019-04-05T16:53:28.371Z,99842.89
2019-04-05T16:55:59.876Z,99846.08
2019-04-05T16:58:31.871Z,99856.53
2019-04-05T17:01:03.435Z,99853.66
2019-04-05T17:03:35.502Z,99861.91
2019-04-05T17:06:06.850Z,99860.02
2019-04-05T17:08:38.507Z,99858.41
2019-04-05T17:11:10.373Z,99860.47
2019-04-05T17:13:42.126Z,99858.52
2019-04-05T17:16:14.477Z,99859.07
2019-04-05T17:18:45.798Z,99861.75
2019-04-05T17:21:17.186Z,99858.58
2019-04-05T17:23:48.943Z,99866.23
2019-04-05T17:26:20.607Z,99858.73
2019-04-05T17:28:52.255Z,99863.73
2019-04-05T17:31:24.822Z,99867.00
2019-04-05T17:33:56.600Z,99867.05
2019-04-05T17:36:28.143Z,99864.28
2019-04-05T17:39:00.514Z,99863.84
2019-04-05T17:41:35.397Z,99865.56
2019-04-05T17:44:07.742Z,99869.78
2019-04-05T17:46:39.063Z,99867.97
2019-04-05T17:49:10.410Z,99876.32
2019-04-05T17:51:42.633Z,99866.64
2019-04-05T17:54:14.290Z,99877.01
2019-04-05T17:56:46.841Z,99873.02
2019-04-05T17:59:19.388Z,99870.28
2019-04-05T18:01:50.691Z,99870.48
2019-04-05T18:04:22.290Z,99868.52
2019-04-05T18:06:53.959Z,99876.40
2019-04-05T18:09:27.418Z,99870.39
2019-04-05T18:11:59.080Z,99877.05
2019-04-05T18:14:30.463Z,99877.25
2019-04-05T18:17:03.035Z,99876.80
2019-04-05T18:19:34.681Z,99873.44
2019-04-05T18:22:06.129Z,99878.55
2019-04-05T18:24:37.471Z,99874.58
2019-04-05T18:27:09.941Z,99881.06
2019-04-05T18:29:41.399Z,99872.00
2019-04-05T18:32:12.740Z,99878.48
2019-04-05T18:34:44.562Z,99876.81
2019-04-05T18:37:16.085Z,99875.74
2019-04-05T18:39:47.745Z,99872.68
2019-04-05T18:42:19.156Z,99873.16
2019-04-05T18:44:50.608Z,99872.88
2019-04-05T18:47:22.263Z,99879.52
2019-04-05T18:50:02.764Z,99882.00
2019-04-05T18:52:26.902Z,99879.38
2019-04-05T18:54:58.353Z,99891.31
2019-04-05T18:57:29.735Z,99891.66
2019-04-05T19:00:02.285Z,99891.69
2019-04-05T19:02:34.854Z,99896.03
2019-04-05T19:05:06.610Z,99899.12
2019-04-05T19:07:38.515Z,99891.27
2019-04-05T19:10:09.943Z,99887.43
2019-04-05T19:12:41.708Z,99895.33
2019-04-05T19:15:13.245Z,99898.73
2019-04-05T19:17:44.714Z,99891.05
2019-04-05T19:20:16.203Z,99896.77
2019-04-05T19:22:48.502Z,99900.17
2019-04-05T19:25:19.958Z,99898.33
2019-04-05T19:27:51.617Z,99901.58
2019-04-05T19:50:47.698Z,99884.58
2019-04-05T19:53:19.530Z,99884.75
2019-04-05T19:55:51.803Z,99885.06
2019-04-05T19:58:23.353Z,99878.89
2019-04-05T20:00:54.816Z,99882.31
2019-04-05T20:03:26.474Z,99877.08
2019-04-05T20:05:58.851Z,99878.77
2019-04-05T20:08:30.683Z,99874.92
2019-04-05T20:11:02.720Z,99879.99
2019-04-05T20:13:34.302Z,99883.41
2019-04-05T20:16:05.867Z,99887.09
2019-04-05T20:18:37.340Z,99876.16
2019-04-05T20:21:08.763Z,99884.93
2019-04-05T20:23:47.501Z,99887.39
2019-04-05T20:26:12.991Z,99888.30
2019-04-05T20:28:44.435Z,99883.38
2019-04-05T20:31:15.885Z,99885.09
2019-04-05T20:33:47.198Z,99886.31
2019-04-05T20:36:18.781Z,99886.78
2019-04-05T20:38:50.174Z,99888.61
2019-04-05T20:41:21.806Z,99895.09
2019-04-05T20:43:53.134Z,99891.54
2019-04-05T20:46:25.441Z,99895.83
2019-04-05T20:48:56.957Z,99887.52
2019-04-05T20:51:28.301Z,99896.29
2019-04-05T20:53:59.968Z,99890.92
2019-04-05T20:56:31.328Z,99884.91
2019-04-05T20:59:02.858Z,99886.59
2019-04-05T21:01:34.178Z,99885.38
2019-04-05T21:04:05.378Z,99888.88
2019-04-05T21:06:36.905Z,99890.12
2019-04-05T21:09:08.655Z,99883.21
2019-04-05T21:11:40.419Z,99883.21
2019-04-05T21:14:11.691Z,99886.75
2019-04-05T21:16:43.113Z,99884.89
2019-04-05T21:19:14.563Z,99886.27
2019-04-05T21:21:46.144Z,99886.87
2019-04-05T21:24:17.672Z,99882.88
2019-04-05T21:26:49.231Z,99881.33
2019-04-05T21:29:21.851Z,99884.39
2019-04-05T21:31:53.268Z,99887.63
2019-04-05T21:34:24.805Z,99891.61
2019-04-05T21:36:56.358Z,99892.08
2019-04-05T21:39:27.942Z,99890.98
2019-04-05T21:41:59.361Z,99894.97
2019-04-05T21:44:30.799Z,99894.05
2019-04-05T21:47:02.353Z,99894.83
2019-04-05T21:49:33.909Z,99899.58
2019-04-05T21:52:05.683Z,99894.97
2019-04-05T21:54:47.120Z,99908.96
2019-04-05T21:57:10.045Z,99903.73
2019-04-05T21:59:41.464Z,99905.72
2019-04-05T22:02:13.213Z,99905.27
2019-04-05T22:04:44.960Z,99906.77
2019-04-05T22:07:17.031Z,99909.69
2019-04-05T22:09:48.700Z,99906.14
2019-04-05T22:12:20.447Z,99909.49
2019-04-05T22:14:52.250Z,99907.66
2019-04-05T22:17:24.261Z,99918.69
2019-04-05T22:19:56.029Z,99909.14
2019-04-05T22:22:27.891Z,99906.97
2019-04-05T22:24:59.831Z,99910.17
2019-04-05T22:27:31.701Z,99914.89
2019-04-05T22:30:03.966Z,99910.41
2019-04-05T22:32:35.522Z,99910.39
2019-04-05T22:35:07.996Z,99922.94
2019-04-05T22:37:39.781Z,99921.05
2019-04-05T22:40:12.435Z,99918.08
2019-04-05T22:42:44.396Z,99921.91
2019-04-05T22:45:16.054Z,99923.55
2019-04-05T22:47:47.923Z,99921.92
2019-04-05T22:50:19.777Z,99926.27
2019-04-05T22:52:51.430Z,99924.14
2019-04-05T22:55:23.223Z,99925.09
2019-04-05T22:57:54.926Z,99925.41
2019-04-05T23:00:26.659Z,99924.95
2019-04-05T23:02:58.198Z,99926.03
2019-04-05T23:05:29.718Z,99925.91
2019-04-05T23:08:01.573Z,99925.93
2019-04-05T23:10:33.426Z,99934.67
2019-04-05T23:13:05.496Z,99933.47
2019-04-05T23:15:37.045Z,99932.37
2019-04-05T23:18:08.803Z,99930.52
2019-04-05T23:20:40.403Z,99935.13
2019-04-05T23:23:12.217Z,99939.08
2019-04-05T23:25:43.757Z,99940.61
2019-04-05T23:28:15.617Z,99930.45
2019-04-05T23:30:47.318Z,99933.21
2019-04-05T23:33:19.134Z,99932.44
2019-04-05T23:35:50.762Z,99935.38
2019-04-05T23:38:22.544Z,99927.25
2019-04-05T23:40:54.347Z,99935.69
2019-04-05T23:43:26.050Z,99930.02
2019-04-05T23:45:57.816Z,99928.29
2019-04-05T23:48:29.573Z,99931.05
2019-04-05T23:51:01.344Z,99930.74
2019-04-05T23:53:33.089Z,99930.00
2019-04-05T23:56:04.953Z,99935.17
2019-04-05T23:58:36.839Z,99934.86
